sensor_id;sensor_type;location;lat;lon;timestamp;temperature;humidity
41557;DHT22;27720;51.992;5.890;2022-11-14T00:02:11;9.40;92.80
41557;DHT22;27720;51.992;5.890;2022-11-14T00:04:55;9.30;92.80
41557;DHT22;27720;51.992;5.890;2022-11-14T00:07:40;9.30;93.00
41557;DHT22;27720;51.992;5.890;2022-11-14T00:10:24;9.20;93.00
41557;DHT22;27720;51.992;5.890;2022-11-14T00:13:08;9.20;93.00
41557;DHT22;27720;51.992;5.890;2022-11-14T00:15:55;9.20;93.10
41557;DHT22;27720;51.992;5.890;2022-11-14T00:18:39;9.10;93.10
41557;DHT22;27720;51.992;5.890;2022-11-14T00:21:23;9.10;93.30
41557;DHT22;27720;51.992;5.890;2022-11-14T00:24:08;9.00;93.40
41557;DHT22;27720;51.992;5.890;2022-11-14T00:26:52;9.00;93.40
41557;DHT22;27720;51.992;5.890;2022-11-14T00:29:37;9.00;93.40
41557;DHT22;27720;51.992;5.890;2022-11-14T00:32:21;9.00;93.50
41557;DHT22;27720;51.992;5.890;2022-11-14T00:35:06;9.00;93.50
41557;DHT22;27720;51.992;5.890;2022-11-14T00:37:52;8.90;93.60
41557;DHT22;27720;51.992;5.890;2022-11-14T00:40:36;8.90;93.70
41557;DHT22;27720;51.992;5.890;2022-11-14T00:43:20;8.90;93.70
41557;DHT22;27720;51.992;5.890;2022-11-14T00:46:07;8.90;93.80
41557;DHT22;27720;51.992;5.890;2022-11-14T00:48:51;8.80;93.90
41557;DHT22;27720;51.992;5.890;2022-11-14T00:51:36;8.80;93.90
41557;DHT22;27720;51.992;5.890;2022-11-14T00:54:20;8.80;93.90
41557;DHT22;27720;51.992;5.890;2022-11-14T00:57:05;8.80;93.90
41557;DHT22;27720;51.992;5.890;2022-11-14T00:59:49;8.80;94.00
41557;DHT22;27720;51.992;5.890;2022-11-14T01:02:33;8.80;94.00
41557;DHT22;27720;51.992;5.890;2022-11-14T01:05:17;8.80;94.00
41557;DHT22;27720;51.992;5.890;2022-11-14T01:08:01;8.70;94.00
41557;DHT22;27720;51.992;5.890;2022-11-14T01:10:49;8.70;94.10
41557;DHT22;27720;51.992;5.890;2022-11-14T01:13:34;8.70;94.10
41557;DHT22;27720;51.992;5.890;2022-11-14T01:16:19;8.70;94.20
41557;DHT22;27720;51.992;5.890;2022-11-14T01:19:04;8.60;94.30
41557;DHT22;27720;51.992;5.890;2022-11-14T01:21:48;8.60;94.30
41557;DHT22;27720;51.992;5.890;2022-11-14T01:24:33;8.50;94.30
41557;DHT22;27720;51.992;5.890;2022-11-14T01:27:17;8.50;94.40
41557;DHT22;27720;51.992;5.890;2022-11-14T01:30:02;8.50;94.40
41557;DHT22;27720;51.992;5.890;2022-11-14T01:32:47;8.50;94.50
41557;DHT22;27720;51.992;5.890;2022-11-14T01:35:32;8.50;94.50
41557;DHT22;27720;51.992;5.890;2022-11-14T01:38:17;8.50;94.70
41557;DHT22;27720;51.992;5.890;2022-11-14T01:41:01;8.50;94.50
41557;DHT22;27720;51.992;5.890;2022-11-14T01:43:46;8.50;94.60
41557;DHT22;27720;51.992;5.890;2022-11-14T01:46:36;8.50;94.70
41557;DHT22;27720;51.992;5.890;2022-11-14T01:49:25;8.40;94.70
41557;DHT22;27720;51.992;5.890;2022-11-14T01:52:26;8.40;94.80
41557;DHT22;27720;51.992;5.890;2022-11-14T01:55:11;8.30;94.80
41557;DHT22;27720;51.992;5.890;2022-11-14T01:57:57;8.30;94.90
41557;DHT22;27720;51.992;5.890;2022-11-14T02:00:43;8.30;95.00
41557;DHT22;27720;51.992;5.890;2022-11-14T02:03:28;8.30;95.00
41557;DHT22;27720;51.992;5.890;2022-11-14T02:06:14;8.30;95.00
41557;DHT22;27720;51.992;5.890;2022-11-14T02:09:03;8.20;95.00
41557;DHT22;27720;51.992;5.890;2022-11-14T02:11:48;8.20;95.40
41557;DHT22;27720;51.992;5.890;2022-11-14T02:14:34;8.10;95.10
41557;DHT22;27720;51.992;5.890;2022-11-14T02:17:20;8.10;95.10
41557;DHT22;27720;51.992;5.890;2022-11-14T02:22:54;8.00;95.30
41557;DHT22;27720;51.992;5.890;2022-11-14T02:25:39;8.00;95.40
41557;DHT22;27720;51.992;5.890;2022-11-14T02:28:24;8.00;95.40
41557;DHT22;27720;51.992;5.890;2022-11-14T02:31:09;8.10;95.30
41557;DHT22;27720;51.992;5.890;2022-11-14T02:33:53;8.10;95.30
41557;DHT22;27720;51.992;5.890;2022-11-14T02:36:37;8.00;95.30
41557;DHT22;27720;51.992;5.890;2022-11-14T02:39:21;8.00;95.40
41557;DHT22;27720;51.992;5.890;2022-11-14T02:42:06;8.00;95.40
41557;DHT22;27720;51.992;5.890;2022-11-14T02:44:50;7.90;95.40
41557;DHT22;27720;51.992;5.890;2022-11-14T02:47:35;8.00;95.40
41557;DHT22;27720;51.992;5.890;2022-11-14T02:50:22;8.00;95.40
41557;DHT22;27720;51.992;5.890;2022-11-14T02:53:06;8.00;95.50
41557;DHT22;27720;51.992;5.890;2022-11-14T02:55:50;7.90;95.50
41557;DHT22;27720;51.992;5.890;2022-11-14T02:58:34;7.90;95.60
41557;DHT22;27720;51.992;5.890;2022-11-14T03:01:18;7.80;95.60
41557;DHT22;27720;51.992;5.890;2022-11-14T03:04:03;7.80;95.60
41557;DHT22;27720;51.992;5.890;2022-11-14T03:06:47;7.80;95.70
41557;DHT22;27720;51.992;5.890;2022-11-14T03:09:31;7.80;95.70
41557;DHT22;27720;51.992;5.890;2022-11-14T03:12:17;7.80;95.70
41557;DHT22;27720;51.992;5.890;2022-11-14T03:15:03;7.70;96.00
41557;DHT22;27720;51.992;5.890;2022-11-14T03:17:48;7.70;96.00
41557;DHT22;27720;51.992;5.890;2022-11-14T03:20:33;7.70;96.00
41557;DHT22;27720;51.992;5.890;2022-11-14T03:23:18;7.60;96.00
41557;DHT22;27720;51.992;5.890;2022-11-14T03:26:05;7.60;96.00
41557;DHT22;27720;51.992;5.890;2022-11-14T03:28:50;7.60;96.00
41557;DHT22;27720;51.992;5.890;2022-11-14T03:31:34;7.50;96.10
41557;DHT22;27720;51.992;5.890;2022-11-14T03:34:18;7.50;96.20
41557;DHT22;27720;51.992;5.890;2022-11-14T03:37:02;7.50;96.30
41557;DHT22;27720;51.992;5.890;2022-11-14T03:39:46;7.50;96.30
41557;DHT22;27720;51.992;5.890;2022-11-14T03:42:34;7.50;96.30
41557;DHT22;27720;51.992;5.890;2022-11-14T03:45:19;7.50;96.30
41557;DHT22;27720;51.992;5.890;2022-11-14T03:48:04;7.50;96.30
41557;DHT22;27720;51.992;5.890;2022-11-14T03:50:48;7.50;96.30
41557;DHT22;27720;51.992;5.890;2022-11-14T03:53:32;7.50;96.30
41557;DHT22;27720;51.992;5.890;2022-11-14T03:56:16;7.50;96.30
41557;DHT22;27720;51.992;5.890;2022-11-14T03:59:00;7.50;96.20
41557;DHT22;27720;51.992;5.890;2022-11-14T04:01:44;7.50;96.20
41557;DHT22;27720;51.992;5.890;2022-11-14T04:04:29;7.50;96.20
41557;DHT22;27720;51.992;5.890;2022-11-14T04:07:12;7.40;96.20
41557;DHT22;27720;51.992;5.890;2022-11-14T04:09:57;7.50;96.30
41557;DHT22;27720;51.992;5.890;2022-11-14T04:12:42;7.40;96.20
41557;DHT22;27720;51.992;5.890;2022-11-14T04:15:29;7.50;96.20
41557;DHT22;27720;51.992;5.890;2022-11-14T04:18:14;7.40;96.20
41557;DHT22;27720;51.992;5.890;2022-11-14T04:20:58;7.40;96.30
41557;DHT22;27720;51.992;5.890;2022-11-14T04:23:42;7.40;96.30
41557;DHT22;27720;51.992;5.890;2022-11-14T04:26:26;7.40;96.30
41557;DHT22;27720;51.992;5.890;2022-11-14T04:29:10;7.40;96.30
41557;DHT22;27720;51.992;5.890;2022-11-14T04:31:54;7.30;96.30
41557;DHT22;27720;51.992;5.890;2022-11-14T04:34:38;7.30;96.40
41557;DHT22;27720;51.992;5.890;2022-11-14T04:37:22;7.20;96.40
41557;DHT22;27720;51.992;5.890;2022-11-14T04:40:07;7.20;96.40
41557;DHT22;27720;51.992;5.890;2022-11-14T04:42:51;7.20;96.50
41557;DHT22;27720;51.992;5.890;2022-11-14T04:45:36;7.20;96.50
41557;DHT22;27720;51.992;5.890;2022-11-14T04:48:20;7.20;96.50
41557;DHT22;27720;51.992;5.890;2022-11-14T04:51:05;7.20;96.50
41557;DHT22;27720;51.992;5.890;2022-11-14T04:53:49;7.10;96.50
41557;DHT22;27720;51.992;5.890;2022-11-14T04:56:34;7.10;96.60
41557;DHT22;27720;51.992;5.890;2022-11-14T04:59:18;7.10;96.70
41557;DHT22;27720;51.992;5.890;2022-11-14T05:02:02;7.00;96.70
41557;DHT22;27720;51.992;5.890;2022-11-14T05:04:49;7.00;96.70
41557;DHT22;27720;51.992;5.890;2022-11-14T05:07:36;7.00;96.70
41557;DHT22;27720;51.992;5.890;2022-11-14T05:10:20;7.00;96.70
41557;DHT22;27720;51.992;5.890;2022-11-14T05:13:04;7.00;96.70
41557;DHT22;27720;51.992;5.890;2022-11-14T05:15:48;7.00;96.70
41557;DHT22;27720;51.992;5.890;2022-11-14T05:18:32;7.00;96.70
41557;DHT22;27720;51.992;5.890;2022-11-14T05:21:16;7.00;96.70
41557;DHT22;27720;51.992;5.890;2022-11-14T05:24:00;7.00;96.70
41557;DHT22;27720;51.992;5.890;2022-11-14T05:26:44;7.10;97.00
41557;DHT22;27720;51.992;5.890;2022-11-14T05:29:28;7.00;96.70
41557;DHT22;27720;51.992;5.890;2022-11-14T05:32:12;7.00;96.70
41557;DHT22;27720;51.992;5.890;2022-11-14T05:34:56;7.00;96.80
41557;DHT22;27720;51.992;5.890;2022-11-14T05:37:40;7.00;96.80
41557;DHT22;27720;51.992;5.890;2022-11-14T05:40:25;7.00;96.80
41557;DHT22;27720;51.992;5.890;2022-11-14T05:43:09;6.90;96.80
41557;DHT22;27720;51.992;5.890;2022-11-14T05:45:57;6.90;96.90
41557;DHT22;27720;51.992;5.890;2022-11-14T05:48:41;6.80;96.90
41557;DHT22;27720;51.992;5.890;2022-11-14T05:51:26;6.80;97.00
41557;DHT22;27720;51.992;5.890;2022-11-14T05:54:10;6.80;97.00
41557;DHT22;27720;51.992;5.890;2022-11-14T05:56:57;6.70;97.10
41557;DHT22;27720;51.992;5.890;2022-11-14T05:59:41;6.70;97.10
41557;DHT22;27720;51.992;5.890;2022-11-14T06:02:26;6.70;97.10
41557;DHT22;27720;51.992;5.890;2022-11-14T06:05:09;6.70;97.10
41557;DHT22;27720;51.992;5.890;2022-11-14T06:07:57;6.70;97.10
41557;DHT22;27720;51.992;5.890;2022-11-14T06:10:42;6.70;97.10
41557;DHT22;27720;51.992;5.890;2022-11-14T06:13:26;6.70;97.10
41557;DHT22;27720;51.992;5.890;2022-11-14T06:16:12;6.60;97.20
41557;DHT22;27720;51.992;5.890;2022-11-14T06:18:57;6.70;97.30
41557;DHT22;27720;51.992;5.890;2022-11-14T06:21:41;6.60;97.20
41557;DHT22;27720;51.992;5.890;2022-11-14T06:24:25;6.60;97.20
41557;DHT22;27720;51.992;5.890;2022-11-14T06:27:09;6.60;97.20
41557;DHT22;27720;51.992;5.890;2022-11-14T06:29:53;6.60;97.20
41557;DHT22;27720;51.992;5.890;2022-11-14T06:32:37;6.60;97.30
41557;DHT22;27720;51.992;5.890;2022-11-14T06:35:21;6.50;97.30
41557;DHT22;27720;51.992;5.890;2022-11-14T06:38:05;6.50;97.30
41557;DHT22;27720;51.992;5.890;2022-11-14T06:40:49;6.50;97.30
41557;DHT22;27720;51.992;5.890;2022-11-14T06:43:41;6.50;97.40
41557;DHT22;27720;51.992;5.890;2022-11-14T06:46:25;6.50;97.30
41557;DHT22;27720;51.992;5.890;2022-11-14T06:49:17;6.50;97.40
41557;DHT22;27720;51.992;5.890;2022-11-14T06:52:01;6.50;97.40
41557;DHT22;27720;51.992;5.890;2022-11-14T06:54:45;6.50;97.50
41557;DHT22;27720;51.992;5.890;2022-11-14T06:57:29;6.40;97.40
41557;DHT22;27720;51.992;5.890;2022-11-14T07:00:14;6.50;97.50
41557;DHT22;27720;51.992;5.890;2022-11-14T07:02:58;6.40;97.50
41557;DHT22;27720;51.992;5.890;2022-11-14T07:05:42;6.40;97.60
41557;DHT22;27720;51.992;5.890;2022-11-14T07:08:30;6.40;97.60
41557;DHT22;27720;51.992;5.890;2022-11-14T07:11:17;6.40;97.70
41557;DHT22;27720;51.992;5.890;2022-11-14T07:14:08;6.40;97.60
41557;DHT22;27720;51.992;5.890;2022-11-14T07:16:53;6.40;97.90
41557;DHT22;27720;51.992;5.890;2022-11-14T07:19:37;6.30;97.60
41557;DHT22;27720;51.992;5.890;2022-11-14T07:22:22;6.30;97.60
41557;DHT22;27720;51.992;5.890;2022-11-14T07:25:06;6.30;97.70
41557;DHT22;27720;51.992;5.890;2022-11-14T07:27:50;6.30;97.70
41557;DHT22;27720;51.992;5.890;2022-11-14T07:30:35;6.40;97.70
41557;DHT22;27720;51.992;5.890;2022-11-14T07:33:19;6.40;97.70
41557;DHT22;27720;51.992;5.890;2022-11-14T07:36:03;6.40;97.70
41557;DHT22;27720;51.992;5.890;2022-11-14T07:38:48;6.30;97.70
41557;DHT22;27720;51.992;5.890;2022-11-14T07:41:35;6.40;97.80
41557;DHT22;27720;51.992;5.890;2022-11-14T07:44:19;6.40;97.70
41557;DHT22;27720;51.992;5.890;2022-11-14T07:47:03;6.40;97.70
41557;DHT22;27720;51.992;5.890;2022-11-14T07:49:48;6.40;97.80
41557;DHT22;27720;51.992;5.890;2022-11-14T07:52:32;6.40;97.80
41557;DHT22;27720;51.992;5.890;2022-11-14T07:55:18;6.30;97.90
41557;DHT22;27720;51.992;5.890;2022-11-14T07:58:03;6.40;97.90
41557;DHT22;27720;51.992;5.890;2022-11-14T08:00:47;6.40;97.90
41557;DHT22;27720;51.992;5.890;2022-11-14T08:03:33;6.40;97.90
41557;DHT22;27720;51.992;5.890;2022-11-14T08:06:17;6.50;97.90
41557;DHT22;27720;51.992;5.890;2022-11-14T08:09:01;6.50;97.80
41557;DHT22;27720;51.992;5.890;2022-11-14T08:11:46;6.50;97.80
41557;DHT22;27720;51.992;5.890;2022-11-14T08:14:33;6.50;97.90
41557;DHT22;27720;51.992;5.890;2022-11-14T08:17:20;6.50;97.90
41557;DHT22;27720;51.992;5.890;2022-11-14T08:20:06;6.50;97.90
41557;DHT22;27720;51.992;5.890;2022-11-14T08:23:00;6.50;98.00
41557;DHT22;27720;51.992;5.890;2022-11-14T08:25:44;6.50;98.00
41557;DHT22;27720;51.992;5.890;2022-11-14T08:28:28;6.60;98.00
41557;DHT22;27720;51.992;5.890;2022-11-14T08:31:12;6.60;98.00
41557;DHT22;27720;51.992;5.890;2022-11-14T08:33:57;6.60;98.00
41557;DHT22;27720;51.992;5.890;2022-11-14T08:36:41;6.60;98.00
41557;DHT22;27720;51.992;5.890;2022-11-14T08:39:26;6.70;98.00
41557;DHT22;27720;51.992;5.890;2022-11-14T08:42:11;6.70;98.00
41557;DHT22;27720;51.992;5.890;2022-11-14T08:44:55;6.80;98.10
41557;DHT22;27720;51.992;5.890;2022-11-14T08:47:40;6.80;98.10
41557;DHT22;27720;51.992;5.890;2022-11-14T08:50:24;6.80;98.10
41557;DHT22;27720;51.992;5.890;2022-11-14T08:53:08;6.80;98.20
41557;DHT22;27720;51.992;5.890;2022-11-14T08:55:53;6.80;98.20
41557;DHT22;27720;51.992;5.890;2022-11-14T08:58:37;6.80;98.30
41557;DHT22;27720;51.992;5.890;2022-11-14T09:01:21;6.80;98.30
41557;DHT22;27720;51.992;5.890;2022-11-14T09:04:13;6.80;98.40
41557;DHT22;27720;51.992;5.890;2022-11-14T09:07:07;6.90;98.40
41557;DHT22;27720;51.992;5.890;2022-11-14T09:09:52;6.90;98.40
41557;DHT22;27720;51.992;5.890;2022-11-14T09:12:36;6.90;98.40
41557;DHT22;27720;51.992;5.890;2022-11-14T09:15:20;7.00;98.40
41557;DHT22;27720;51.992;5.890;2022-11-14T09:18:05;7.00;98.30
41557;DHT22;27720;51.992;5.890;2022-11-14T09:20:49;7.10;98.40
41557;DHT22;27720;51.992;5.890;2022-11-14T09:23:34;7.10;98.40
41557;DHT22;27720;51.992;5.890;2022-11-14T09:26:19;7.10;98.40
41557;DHT22;27720;51.992;5.890;2022-11-14T09:29:03;7.20;98.40
41557;DHT22;27720;51.992;5.890;2022-11-14T09:31:51;7.20;98.40
41557;DHT22;27720;51.992;5.890;2022-11-14T09:34:36;7.20;98.40
41557;DHT22;27720;51.992;5.890;2022-11-14T09:37:20;7.30;98.40
41557;DHT22;27720;51.992;5.890;2022-11-14T09:40:05;7.30;98.40
41557;DHT22;27720;51.992;5.890;2022-11-14T09:46:22;7.50;98.30
41557;DHT22;27720;51.992;5.890;2022-11-14T09:55:18;7.60;98.30
41557;DHT22;27720;51.992;5.890;2022-11-14T09:58:04;7.70;98.30
41557;DHT22;27720;51.992;5.890;2022-11-14T10:04:10;7.70;98.30
41557;DHT22;27720;51.992;5.890;2022-11-14T10:10:52;7.80;98.30
41557;DHT22;27720;51.992;5.890;2022-11-14T10:19:48;7.90;98.20
41557;DHT22;27720;51.992;5.890;2022-11-14T10:26:04;8.00;98.60
41557;DHT22;27720;51.992;5.890;2022-11-14T10:32:42;8.10;98.60
41557;DHT22;27720;51.992;5.890;2022-11-14T10:35:29;8.20;98.70
41557;DHT22;27720;51.992;5.890;2022-11-14T10:38:28;8.30;98.70
41557;DHT22;27720;51.992;5.890;2022-11-14T10:41:15;8.40;98.70
41557;DHT22;27720;51.992;5.890;2022-11-14T10:43:59;8.50;98.60
41557;DHT22;27720;51.992;5.890;2022-11-14T10:46:53;8.70;98.50
41557;DHT22;27720;51.992;5.890;2022-11-14T10:49:39;8.70;98.40
41557;DHT22;27720;51.992;5.890;2022-11-14T10:52:38;8.80;98.40
41557;DHT22;27720;51.992;5.890;2022-11-14T10:55:24;8.90;98.30
41557;DHT22;27720;51.992;5.890;2022-11-14T10:58:12;8.90;98.40
41557;DHT22;27720;51.992;5.890;2022-11-14T11:04:25;9.00;98.20
41557;DHT22;27720;51.992;5.890;2022-11-14T11:10:22;9.00;98.30
41557;DHT22;27720;51.992;5.890;2022-11-14T11:13:39;9.10;98.20
41557;DHT22;27720;51.992;5.890;2022-11-14T11:16:26;9.20;98.20
41557;DHT22;27720;51.992;5.890;2022-11-14T11:19:22;9.10;98.30
41557;DHT22;27720;51.992;5.890;2022-11-14T11:22:36;9.20;98.20
41557;DHT22;27720;51.992;5.890;2022-11-14T11:25:27;9.20;98.10
41557;DHT22;27720;51.992;5.890;2022-11-14T11:28:16;9.30;98.20
41557;DHT22;27720;51.992;5.890;2022-11-14T11:31:09;9.20;98.10
41557;DHT22;27720;51.992;5.890;2022-11-14T11:33:54;9.30;98.20
41557;DHT22;27720;51.992;5.890;2022-11-14T11:36:50;9.40;98.20
41557;DHT22;27720;51.992;5.890;2022-11-14T11:39:50;9.50;98.20
41557;DHT22;27720;51.992;5.890;2022-11-14T11:42:48;9.50;98.20
41557;DHT22;27720;51.992;5.890;2022-11-14T11:45:35;9.60;98.20
41557;DHT22;27720;51.992;5.890;2022-11-14T11:48:21;9.60;98.20
41557;DHT22;27720;51.992;5.890;2022-11-14T11:51:14;9.60;98.20
41557;DHT22;27720;51.992;5.890;2022-11-14T11:54:06;9.60;98.20
41557;DHT22;27720;51.992;5.890;2022-11-14T11:56:59;9.60;98.20
41557;DHT22;27720;51.992;5.890;2022-11-14T11:59:48;9.60;98.30
41557;DHT22;27720;51.992;5.890;2022-11-14T12:02:35;9.60;98.30
41557;DHT22;27720;51.992;5.890;2022-11-14T12:11:33;9.60;98.20
41557;DHT22;27720;51.992;5.890;2022-11-14T12:27:04;9.50;98.30
41557;DHT22;27720;51.992;5.890;2022-11-14T12:35:36;9.70;98.10
41557;DHT22;27720;51.992;5.890;2022-11-14T12:38:22;9.60;98.10
41557;DHT22;27720;51.992;5.890;2022-11-14T12:41:08;9.70;98.10
41557;DHT22;27720;51.992;5.890;2022-11-14T12:44:32;9.70;98.10
41557;DHT22;27720;51.992;5.890;2022-11-14T12:47:19;9.70;98.10
41557;DHT22;27720;51.992;5.890;2022-11-14T12:50:38;9.70;98.20
41557;DHT22;27720;51.992;5.890;2022-11-14T13:00:06;9.90;98.00
41557;DHT22;27720;51.992;5.890;2022-11-14T13:02:39;9.90;98.00
41557;DHT22;27720;51.992;5.890;2022-11-14T13:09:22;9.90;97.90
41557;DHT22;27720;51.992;5.890;2022-11-14T13:12:23;9.90;97.80
41557;DHT22;27720;51.992;5.890;2022-11-14T13:15:48;9.90;97.80
41557;DHT22;27720;51.992;5.890;2022-11-14T13:27:41;9.90;97.80
41557;DHT22;27720;51.992;5.890;2022-11-14T13:33:55;9.90;97.60
41557;DHT22;27720;51.992;5.890;2022-11-14T13:40:06;9.90;97.60
41557;DHT22;27720;51.992;5.890;2022-11-14T13:52:00;9.80;97.70
41557;DHT22;27720;51.992;5.890;2022-11-14T13:54:48;9.90;97.70
